createdAt,value
2018-06-18T00:01:34.823Z,4.37
2018-06-18T00:04:03.141Z,4.20
2018-06-18T00:06:31.388Z,4.20
2018-06-18T00:08:59.628Z,3.93
2018-06-18T00:11:27.995Z,3.53
2018-06-18T00:13:56.406Z,3.60
2018-06-18T00:16:24.670Z,3.13
2018-06-18T00:18:52.911Z,3.43
2018-06-18T00:21:21.190Z,3.83
2018-06-18T00:23:49.453Z,4.10
2018-06-18T00:26:17.760Z,3.63
2018-06-18T00:28:46.039Z,3.53
2018-06-18T00:31:14.387Z,3.23
2018-06-18T00:33:42.662Z,3.63
2018-06-18T00:36:10.960Z,3.13
2018-06-18T00:38:39.255Z,3.17
2018-06-18T00:41:07.492Z,3.50
2018-06-18T00:43:35.796Z,3.20
2018-06-18T00:46:04.744Z,3.27
2018-06-18T00:48:33.050Z,3.17
2018-06-18T00:51:01.259Z,3.07
2018-06-18T00:53:29.525Z,3.23
2018-06-18T00:56:09.410Z,3.27
2018-06-18T00:58:38.045Z,2.97
2018-06-18T01:01:06.331Z,3.30
2018-06-18T01:03:34.589Z,3.03
2018-06-18T01:06:03.271Z,3.17
2018-06-18T01:08:31.536Z,3.53
2018-06-18T01:11:00.161Z,3.50
2018-06-18T01:13:28.426Z,3.00
2018-06-18T01:15:56.968Z,3.07
2018-06-18T01:18:25.532Z,3.43
2018-06-18T01:20:53.963Z,2.83
2018-06-18T01:25:01.435Z,3.10
2018-06-18T01:27:29.691Z,3.40
2018-06-18T01:29:58.003Z,2.77
2018-06-18T01:32:27.020Z,3.60
2018-06-18T01:34:55.299Z,3.30
2018-06-18T01:37:23.837Z,3.40
2018-06-18T01:39:52.083Z,3.20
2018-06-18T01:42:20.431Z,3.33
2018-06-18T01:44:48.676Z,3.20
2018-06-18T01:47:17.499Z,2.70
2018-06-18T01:49:45.708Z,3.20
2018-06-18T01:52:13.963Z,3.50
2018-06-18T01:54:42.176Z,3.10
2018-06-18T01:57:10.418Z,3.00
2018-06-18T01:59:38.695Z,3.20
2018-06-18T02:02:06.939Z,2.97
2018-06-18T02:04:35.194Z,3.50
2018-06-18T02:07:03.430Z,3.63
2018-06-18T02:09:31.675Z,3.70
2018-06-18T02:11:59.894Z,3.47
2018-06-18T02:14:30.048Z,3.50
2018-06-18T02:16:58.284Z,3.50
2018-06-18T02:19:26.524Z,4.03
2018-06-18T02:21:54.800Z,3.40
2018-06-18T02:24:23.078Z,3.17
2018-06-18T02:26:55.588Z,3.53
2018-06-18T02:30:29.104Z,3.50
2018-06-18T02:33:02.996Z,3.07
2018-06-18T02:35:36.668Z,3.00
2018-06-18T02:38:10.367Z,3.30
2018-06-18T02:40:44.123Z,3.73
2018-06-18T02:43:15.534Z,2.90
2018-06-18T02:45:43.779Z,3.37
2018-06-18T02:48:12.706Z,3.53
2018-06-18T02:50:41.241Z,2.90
2018-06-18T02:53:09.495Z,3.40
2018-06-18T02:55:38.714Z,3.43
2018-06-18T02:58:07.015Z,3.43
2018-06-18T03:00:35.280Z,3.20
2018-06-18T03:03:03.559Z,3.67
2018-06-18T03:05:31.796Z,3.13
2018-06-18T03:08:00.059Z,3.87
2018-06-18T03:10:28.324Z,3.80
2018-06-18T03:12:56.592Z,3.50
2018-06-18T03:15:24.900Z,3.50
2018-06-18T03:17:53.247Z,3.30
2018-06-18T03:20:26.927Z,3.60
2018-06-18T03:23:00.479Z,3.30
2018-06-18T03:25:34.116Z,3.63
2018-06-18T03:28:07.847Z,3.60
2018-06-18T03:30:36.096Z,2.97
2018-06-18T03:33:04.576Z,3.10
2018-06-18T03:35:32.822Z,3.07
2018-06-18T03:38:02.033Z,3.07
2018-06-18T03:40:30.279Z,3.17
2018-06-18T03:42:58.580Z,3.33
2018-06-18T03:45:30.593Z,3.40
2018-06-18T03:48:08.827Z,2.90
2018-06-18T03:50:37.505Z,2.93
2018-06-18T03:53:05.827Z,2.67
2018-06-18T03:55:44.179Z,2.70
2018-06-18T03:58:12.443Z,2.70
2018-06-18T04:01:57.347Z,2.60
2018-06-18T04:05:29.432Z,1.93
2018-06-18T04:08:00.653Z,2.17
2018-06-18T04:10:37.481Z,2.30
2018-06-18T04:13:05.880Z,2.00
2018-06-18T04:15:34.512Z,2.00
2018-06-18T04:18:02.728Z,1.90
2018-06-18T04:20:35.650Z,1.97
2018-06-18T04:23:03.936Z,1.73
2018-06-18T04:25:32.161Z,1.70
2018-06-18T04:28:00.491Z,1.97
2018-06-18T04:30:28.706Z,1.53
2018-06-18T04:32:56.984Z,2.20
2018-06-18T04:35:25.303Z,1.67
2018-06-18T04:37:53.637Z,1.80
2018-06-18T04:40:21.871Z,2.00
2018-06-18T04:42:55.540Z,1.90
2018-06-18T04:45:29.235Z,1.83
2018-06-18T04:48:08.947Z,2.00
2018-06-18T04:50:42.604Z,1.90
2018-06-18T04:53:10.780Z,2.60
2018-06-18T04:55:39.043Z,2.17
2018-06-18T04:58:07.288Z,2.10
2018-06-18T05:00:50.611Z,2.10
2018-06-18T05:03:18.938Z,2.03
2018-06-18T05:05:47.159Z,2.00
2018-06-18T05:09:12.086Z,2.20
2018-06-18T05:11:40.390Z,2.13
2018-06-18T05:14:08.647Z,1.90
2018-06-18T05:16:36.926Z,2.00
2018-06-18T05:19:05.464Z,1.87
2018-06-18T05:21:33.773Z,2.20
2018-06-18T05:24:02.133Z,1.98
2018-06-18T05:26:30.947Z,1.75
2018-06-18T05:28:59.201Z,1.50
2018-06-18T05:31:27.767Z,1.50
2018-06-18T05:33:56.083Z,1.50
2018-06-18T05:36:24.301Z,1.50
2018-06-18T05:38:53.180Z,1.20
2018-06-18T05:41:21.432Z,1.40
2018-06-18T05:43:49.699Z,1.20
2018-06-18T05:46:18.306Z,1.27
2018-06-18T05:48:46.532Z,1.40
2018-06-18T05:51:14.753Z,1.32
2018-06-18T05:53:43.005Z,1.37
2018-06-18T05:56:11.240Z,1.20
2018-06-18T05:58:39.499Z,1.30
2018-06-18T06:01:07.735Z,1.40
2018-06-18T06:03:35.984Z,1.20
2018-06-18T06:06:04.337Z,1.15
2018-06-18T06:08:34.524Z,1.20
2018-06-18T06:11:02.796Z,1.00
2018-06-18T06:13:31.128Z,1.02
2018-06-18T06:15:59.712Z,2.45
2018-06-18T06:18:27.716Z,1.15
2018-06-18T06:21:01.341Z,1.10
2018-06-18T06:23:29.935Z,1.40
2018-06-18T06:25:59.932Z,1.30
2018-06-18T06:28:28.143Z,1.55
2018-06-18T06:30:56.876Z,1.20
2018-06-18T06:33:26.188Z,1.37
2018-06-18T06:35:56.105Z,1.60
2018-06-18T06:38:24.364Z,1.17
2018-06-18T06:40:52.807Z,1.52
2018-06-18T06:43:21.055Z,1.32
2018-06-18T06:45:49.377Z,1.40
2018-06-18T06:48:17.594Z,1.47
2018-06-18T06:50:45.868Z,1.20
2018-06-18T06:53:14.113Z,0.82
2018-06-18T06:55:42.401Z,1.47
2018-06-18T06:58:10.628Z,1.52
2018-06-18T07:00:38.909Z,1.30
2018-06-18T07:03:06.870Z,1.57
2018-06-18T07:05:35.127Z,1.47
2018-06-18T07:08:04.090Z,1.40
2018-06-18T07:10:32.312Z,1.47
2018-06-18T07:13:00.567Z,1.30
2018-06-18T07:15:28.856Z,1.37
2018-06-18T07:17:57.127Z,1.10
2018-06-18T07:20:25.385Z,1.17
2018-06-18T07:22:57.686Z,1.30
2018-06-18T07:25:25.935Z,1.60
2018-06-18T07:27:54.212Z,1.15
2018-06-18T07:30:22.493Z,1.42
2018-06-18T07:32:50.703Z,1.10
2018-06-18T07:35:18.959Z,1.20
2018-06-18T07:37:47.237Z,1.32
2018-06-18T07:40:16.135Z,0.98
2018-06-18T07:42:44.395Z,1.17
2018-06-18T07:45:13.292Z,1.45
2018-06-18T07:47:41.499Z,1.42
2018-06-18T07:50:09.848Z,1.00
2018-06-18T07:52:38.075Z,1.17
2018-06-18T07:55:08.363Z,1.20
2018-06-18T07:57:36.647Z,1.30
2018-06-18T08:00:05.307Z,1.50
2018-06-18T08:02:33.552Z,1.02
2018-06-18T08:05:01.848Z,1.30
2018-06-18T08:07:30.103Z,1.20
2018-06-18T08:09:58.367Z,1.25
2018-06-18T08:12:26.604Z,1.20
2018-06-18T08:14:54.853Z,1.37
2018-06-18T08:17:23.145Z,1.22
2018-06-18T08:19:51.328Z,1.22
2018-06-18T08:22:19.683Z,1.30
2018-06-18T08:24:49.555Z,1.20
2018-06-18T08:27:17.817Z,1.15
2018-06-18T08:29:46.136Z,1.60
2018-06-18T08:32:14.399Z,0.95
2018-06-18T08:34:42.684Z,1.50
2018-06-18T08:37:10.941Z,0.93
2018-06-18T08:39:39.211Z,1.42
2018-06-18T08:42:07.535Z,1.17
2018-06-18T08:44:35.870Z,1.70
2018-06-18T08:47:04.080Z,1.05
2018-06-18T08:49:32.337Z,1.40
2018-06-18T08:52:05.901Z,1.22
2018-06-18T08:54:39.552Z,1.47
2018-06-18T08:57:15.305Z,1.55
2018-06-18T08:59:49.096Z,1.60
2018-06-18T09:02:22.927Z,1.50
2018-06-18T09:04:56.624Z,1.10
2018-06-18T09:07:25.943Z,1.45
2018-06-18T09:09:56.054Z,1.30
2018-06-18T09:12:24.424Z,1.47
2018-06-18T09:14:52.751Z,1.45
2018-06-18T09:17:20.978Z,1.12
2018-06-18T09:19:49.286Z,1.42
2018-06-18T09:22:17.828Z,1.20
2018-06-18T09:24:46.410Z,1.20
2018-06-18T09:27:15.076Z,1.42
2018-06-18T09:29:50.670Z,1.50
2018-06-18T09:32:19.484Z,1.35
2018-06-18T09:34:47.585Z,1.30
2018-06-18T09:37:16.486Z,1.42
2018-06-18T09:42:18.419Z,1.37
2018-06-18T09:44:46.683Z,1.50
2018-06-18T09:47:14.964Z,1.27
2018-06-18T09:49:48.480Z,1.00
2018-06-18T09:52:22.204Z,1.12
2018-06-18T09:54:55.819Z,1.60
2018-06-18T09:57:29.471Z,1.25
2018-06-18T10:00:16.453Z,1.37
2018-06-18T10:02:45.618Z,1.40
2018-06-18T10:05:13.881Z,1.15
2018-06-18T10:07:42.136Z,1.35
2018-06-18T10:10:10.424Z,1.50
2018-06-18T10:12:39.371Z,1.30
2018-06-18T10:15:08.393Z,1.20
2018-06-18T10:17:36.632Z,1.50
2018-06-18T10:20:06.172Z,1.55
2018-06-18T10:22:34.668Z,1.27
2018-06-18T10:25:02.951Z,1.22
2018-06-18T10:27:31.231Z,1.12
2018-06-18T10:29:59.254Z,1.07
2018-06-18T10:32:32.924Z,1.30
2018-06-18T10:36:03.980Z,1.37
2018-06-18T10:38:37.528Z,1.30
2018-06-18T10:41:11.102Z,1.40
2018-06-18T10:43:40.065Z,1.80
2018-06-18T10:46:08.283Z,1.10
2018-06-18T10:48:38.460Z,1.10
2018-06-18T10:51:06.716Z,1.30
2018-06-18T10:53:35.861Z,0.90
2018-06-18T10:56:04.079Z,1.25
2018-06-18T10:58:32.351Z,1.57
2018-06-18T11:01:03.537Z,1.25
2018-06-18T11:03:31.839Z,1.17
2018-06-18T11:06:05.439Z,1.17
2018-06-18T11:08:33.736Z,1.25
2018-06-18T11:11:02.003Z,1.30
2018-06-18T11:13:31.182Z,1.10
2018-06-18T11:15:59.665Z,1.27
2018-06-18T11:18:34.016Z,1.00
2018-06-18T11:21:08.062Z,1.20
2018-06-18T11:23:41.808Z,0.95
2018-06-18T11:26:15.514Z,0.95
2018-06-18T11:28:43.827Z,1.20
2018-06-18T11:31:12.287Z,1.12
2018-06-18T11:33:48.079Z,1.35
2018-06-18T11:36:16.331Z,1.40
2018-06-18T11:38:44.605Z,1.10
2018-06-18T11:41:12.811Z,1.20
2018-06-18T11:43:47.649Z,1.47
2018-06-18T11:46:15.915Z,1.52
2018-06-18T11:48:44.153Z,1.42
2018-06-18T11:51:12.652Z,1.50
2018-06-18T11:53:40.871Z,1.20
2018-06-18T11:56:09.078Z,1.27
2018-06-18T11:58:45.165Z,1.20
2018-06-18T12:01:18.859Z,1.70
2018-06-18T12:03:52.525Z,1.25
2018-06-18T12:06:25.983Z,1.32
2018-06-18T12:08:59.748Z,1.30
2018-06-18T12:11:28.023Z,1.30
2018-06-18T12:13:57.479Z,1.50
2018-06-18T12:16:26.088Z,1.72
2018-06-18T12:18:55.041Z,1.25
2018-06-18T12:21:23.493Z,1.17
2018-06-18T12:23:51.801Z,1.45
2018-06-18T12:26:20.019Z,1.40
2018-06-18T12:28:48.235Z,1.40
2018-06-18T12:31:16.447Z,1.30
2018-06-18T12:33:44.710Z,1.35
2018-06-18T12:36:13.519Z,1.30
2018-06-18T12:38:42.240Z,1.22
2018-06-18T12:41:10.999Z,1.40
2018-06-18T12:43:41.380Z,1.40
2018-06-18T12:46:15.207Z,1.40
2018-06-18T12:48:48.775Z,1.30
2018-06-18T12:51:22.445Z,1.20
2018-06-18T12:53:56.048Z,1.32
2018-06-18T12:56:30.601Z,1.22
2018-06-18T12:59:03.552Z,1.52
2018-06-18T13:01:34.392Z,1.62
2018-06-18T13:04:04.151Z,1.10
2018-06-18T13:06:32.430Z,1.60
2018-06-18T13:09:00.693Z,1.30
2018-06-18T13:11:29.016Z,1.37
2018-06-18T13:13:57.276Z,1.20
2018-06-18T13:16:25.579Z,1.20
2018-06-18T13:18:53.861Z,1.20
2018-06-18T13:21:22.616Z,1.30
2018-06-18T13:23:51.307Z,1.30
2018-06-18T13:26:19.551Z,1.37
2018-06-18T13:28:47.791Z,1.57
2018-06-18T13:31:16.063Z,1.20
2018-06-18T13:33:44.625Z,1.25
2018-06-18T13:36:12.915Z,1.20
2018-06-18T13:38:46.560Z,1.27
2018-06-18T13:41:20.012Z,1.42
2018-06-18T13:43:54.080Z,1.20
2018-06-18T13:46:27.793Z,1.35
2018-06-18T13:48:56.915Z,1.50
2018-06-18T13:51:26.372Z,1.30
2018-06-18T13:53:54.877Z,1.30
2018-06-18T13:56:23.907Z,0.95
2018-06-18T13:58:53.177Z,1.15
2018-06-18T14:01:21.652Z,1.10
2018-06-18T14:03:49.821Z,1.30
2018-06-18T14:06:18.020Z,1.00
2018-06-18T14:08:46.306Z,1.20
2018-06-18T14:11:14.510Z,1.20
2018-06-18T14:13:42.829Z,1.20
2018-06-18T14:16:11.119Z,1.17
2018-06-18T14:18:40.294Z,1.22
2018-06-18T14:21:08.536Z,1.15
2018-06-18T14:23:36.805Z,1.20
2018-06-18T14:26:05.101Z,1.10
2018-06-18T14:28:33.322Z,1.10
2018-06-18T14:31:06.973Z,1.05
2018-06-18T14:33:40.623Z,0.90
2018-06-18T14:36:14.282Z,1.20
2018-06-18T14:38:49.916Z,1.37
2018-06-18T14:41:18.115Z,1.07
2018-06-18T14:43:46.463Z,1.10
2018-06-18T14:46:14.788Z,1.10
2018-06-18T14:48:43.018Z,1.15
2018-06-18T14:51:11.971Z,1.02
2018-06-18T14:53:40.491Z,0.90
2018-06-18T14:56:19.168Z,1.10
2018-06-18T14:59:54.200Z,1.02
2018-06-18T15:02:22.744Z,1.10
2018-06-18T15:04:50.964Z,1.17
2018-06-18T15:07:19.352Z,0.95
2018-06-18T15:09:47.603Z,1.42
2018-06-18T15:12:17.207Z,1.10
2018-06-18T15:14:46.608Z,1.10
2018-06-18T15:17:14.879Z,1.40
2018-06-18T15:19:43.140Z,1.00
2018-06-18T15:22:11.407Z,1.20
2018-06-18T15:24:46.323Z,1.30
2018-06-18T15:27:14.586Z,1.60
2018-06-18T15:29:42.873Z,1.40
2018-06-18T15:32:11.124Z,1.10
2018-06-18T15:34:39.345Z,1.60
2018-06-18T15:37:07.622Z,1.20
2018-06-18T15:39:35.828Z,1.42
2018-06-18T15:42:04.369Z,1.45
2018-06-18T15:44:34.569Z,1.15
2018-06-18T15:47:02.814Z,1.77
2018-06-18T15:49:31.076Z,1.22
2018-06-18T15:51:59.560Z,1.40
2018-06-18T15:54:28.083Z,1.05
2018-06-18T15:56:56.482Z,1.45
2018-06-18T15:59:24.654Z,1.07
2018-06-18T16:01:52.982Z,1.35
2018-06-18T16:04:21.549Z,1.55
2018-06-18T16:06:49.795Z,1.70
2018-06-18T16:09:18.048Z,1.65
2018-06-18T16:11:46.311Z,1.25
2018-06-18T16:14:15.333Z,1.20
2018-06-18T16:16:43.545Z,1.42
2018-06-18T16:19:11.883Z,1.47
2018-06-18T16:21:40.139Z,1.10
2018-06-18T16:24:08.383Z,1.40
2018-06-18T16:26:36.585Z,1.32
2018-06-18T16:29:04.895Z,1.42
2018-06-18T16:31:33.192Z,1.85
2018-06-18T16:34:01.454Z,1.62
2018-06-18T16:36:29.675Z,1.50
2018-06-18T16:38:57.937Z,1.40
2018-06-18T16:41:26.615Z,1.35
2018-06-18T16:43:54.899Z,1.35
2018-06-18T16:46:23.212Z,1.60
2018-06-18T16:48:51.467Z,1.30
2018-06-18T16:51:19.675Z,1.47
2018-06-18T16:53:49.528Z,1.35
2018-06-18T16:56:17.747Z,1.60
2018-06-18T16:58:46.079Z,1.35
2018-06-18T17:01:14.904Z,1.60
2018-06-18T17:03:43.118Z,1.27
2018-06-18T17:06:11.362Z,1.50
2018-06-18T17:08:39.619Z,1.52
2018-06-18T17:11:07.896Z,1.72
2018-06-18T17:13:36.767Z,1.25
2018-06-18T17:16:05.006Z,2.05
2018-06-18T17:18:33.221Z,1.67
2018-06-18T17:21:01.853Z,1.52
2018-06-18T17:23:30.238Z,1.85
2018-06-18T17:25:58.435Z,1.80
2018-06-18T17:28:26.420Z,1.80
2018-06-18T17:30:54.694Z,1.70
2018-06-18T17:33:23.925Z,1.62
2018-06-18T17:35:52.304Z,1.80
2018-06-18T17:38:20.543Z,1.47
2018-06-18T17:40:48.788Z,1.60
2018-06-18T17:43:17.076Z,1.47
2018-06-18T17:45:45.354Z,1.25
2018-06-18T17:48:13.626Z,1.90
2018-06-18T17:50:41.822Z,1.52
2018-06-18T17:53:10.477Z,1.47
2018-06-18T17:55:38.695Z,1.60
2018-06-18T17:58:06.947Z,1.77
2018-06-18T18:02:59.760Z,2.00
2018-06-18T18:05:28.273Z,2.30
2018-06-18T18:07:56.789Z,1.50
2018-06-18T18:10:24.838Z,1.50
2018-06-18T18:12:59.977Z,1.60
2018-06-18T18:15:28.464Z,1.65
2018-06-18T18:17:56.695Z,1.60
2018-06-18T18:20:24.950Z,1.77
2018-06-18T18:22:53.215Z,1.42
2018-06-18T18:25:21.496Z,1.50
2018-06-18T18:27:49.796Z,1.65
2018-06-18T18:30:17.991Z,1.55
2018-06-18T18:32:46.243Z,1.50
2018-06-18T18:35:14.509Z,1.35
2018-06-18T18:37:42.836Z,1.75
2018-06-18T18:42:44.335Z,1.50
2018-06-18T18:45:12.704Z,1.50
2018-06-18T18:47:40.983Z,1.90
2018-06-18T18:50:09.245Z,1.67
2018-06-18T18:52:37.471Z,1.80
2018-06-18T18:56:14.781Z,1.42
2018-06-18T18:59:35.230Z,1.90
2018-06-18T19:02:03.263Z,2.37
2018-06-18T19:04:36.827Z,2.00
2018-06-18T19:07:05.680Z,1.40
2018-06-18T19:09:39.798Z,1.40
2018-06-18T19:12:08.451Z,1.60
2018-06-18T19:14:37.380Z,1.72
2018-06-18T19:17:05.626Z,1.75
2018-06-18T19:19:42.992Z,1.70
2018-06-18T19:22:12.320Z,2.25
2018-06-18T19:24:40.572Z,1.50
2018-06-18T19:27:08.906Z,1.92
2018-06-18T19:29:37.130Z,1.75
2018-06-18T19:32:05.539Z,1.72
2018-06-18T19:34:33.857Z,1.60
2018-06-18T19:37:02.473Z,1.67
2018-06-18T19:39:33.163Z,1.70
2018-06-18T19:42:01.418Z,2.37
2018-06-18T19:44:29.715Z,1.80
2018-06-18T19:47:37.437Z,2.10
2018-06-18T19:50:05.679Z,2.10
2018-06-18T19:52:33.955Z,1.90
2018-06-18T19:55:16.395Z,1.75
2018-06-18T19:57:44.759Z,1.90
2018-06-18T20:00:13.039Z,2.33
2018-06-18T20:02:41.250Z,2.15
2018-06-18T20:05:14.456Z,2.08
2018-06-18T20:08:47.972Z,2.92
2018-06-18T20:11:16.227Z,2.17
2018-06-18T20:13:44.477Z,2.72
2018-06-18T20:16:19.380Z,2.55
2018-06-18T20:18:47.650Z,2.55
2018-06-18T20:21:15.895Z,2.60
2018-06-18T20:23:44.134Z,2.85
2018-06-18T20:26:15.460Z,2.40
2018-06-18T20:28:43.695Z,2.90
2018-06-18T20:31:12.129Z,2.90
2018-06-18T20:33:45.965Z,2.45
2018-06-18T20:36:15.445Z,3.00
2018-06-18T20:38:43.762Z,2.50
2018-06-18T20:41:11.980Z,2.62
2018-06-18T20:43:54.681Z,2.55
2018-06-18T20:46:22.924Z,2.72
2018-06-18T20:48:51.191Z,2.67
2018-06-18T20:51:19.455Z,2.60
2018-06-18T20:53:47.718Z,3.00
2018-06-18T20:56:15.960Z,2.72
2018-06-18T20:58:44.207Z,2.70
2018-06-18T21:01:12.438Z,2.55
2018-06-18T21:03:40.692Z,2.37
2018-06-18T21:06:09.049Z,2.42
2018-06-18T21:08:37.340Z,2.33
2018-06-18T21:11:05.619Z,3.12
2018-06-18T21:13:34.036Z,2.77
2018-06-18T21:16:02.296Z,2.87
2018-06-18T21:18:30.504Z,2.70
2018-06-18T21:20:58.806Z,2.60
2018-06-18T21:23:27.112Z,2.62
2018-06-18T21:25:55.937Z,2.65
2018-06-18T21:28:24.126Z,3.00
2018-06-18T21:30:52.536Z,3.15
2018-06-18T21:33:20.859Z,2.83
2018-06-18T21:35:49.211Z,3.20
2018-06-18T21:38:17.475Z,3.33
2018-06-18T21:40:45.831Z,3.43
2018-06-18T21:43:14.053Z,2.98
2018-06-18T21:45:43.595Z,3.30
2018-06-18T21:48:11.839Z,3.70
2018-06-18T21:50:40.096Z,3.67
2018-06-18T21:53:08.355Z,3.17
2018-06-18T21:55:36.590Z,3.73
2018-06-18T21:58:05.503Z,3.53
2018-06-18T22:00:37.307Z,3.93
2018-06-18T22:03:05.620Z,3.60
2018-06-18T22:05:34.105Z,3.53
2018-06-18T22:08:03.532Z,4.60
2018-06-18T22:10:31.811Z,4.20
2018-06-18T22:12:59.987Z,4.10
2018-06-18T22:15:28.232Z,4.10
2018-06-18T22:17:56.901Z,3.80
2018-06-18T22:20:25.444Z,3.70
2018-06-18T22:22:53.691Z,4.17
2018-06-18T22:25:21.979Z,3.70
2018-06-18T22:27:50.239Z,4.03
2018-06-18T22:30:18.462Z,3.90
2018-06-18T22:32:46.789Z,3.70
2018-06-18T22:35:15.167Z,3.60
2018-06-18T22:37:43.375Z,4.20
2018-06-18T22:40:11.692Z,3.83
2018-06-18T22:42:39.948Z,3.83
2018-06-18T22:45:10.420Z,3.90
2018-06-18T22:47:39.569Z,3.53
2018-06-18T22:50:07.833Z,3.70
2018-06-18T22:52:36.103Z,3.87
2018-06-18T22:55:04.339Z,3.83
2018-06-18T22:57:32.691Z,4.10
2018-06-18T23:00:00.990Z,4.10
2018-06-18T23:02:30.976Z,4.63
2018-06-18T23:04:59.832Z,4.40
2018-06-18T23:07:28.592Z,4.20
2018-06-18T23:09:56.843Z,4.60
2018-06-18T23:12:30.723Z,5.10
2018-06-18T23:14:59.203Z,4.97
2018-06-18T23:17:27.487Z,4.47
2018-06-18T23:19:55.735Z,4.10
2018-06-18T23:22:24.096Z,4.30
2018-06-18T23:24:52.482Z,4.70
2018-06-18T23:27:20.756Z,4.73
2018-06-18T23:29:49.009Z,5.13
2018-06-18T23:32:17.216Z,5.03
2018-06-18T23:34:45.503Z,5.23
2018-06-18T23:37:13.732Z,5.07
2018-06-18T23:39:41.945Z,6.10
2018-06-18T23:42:10.212Z,5.13
2018-06-18T23:44:38.443Z,5.10
2018-06-18T23:47:08.112Z,4.93
2018-06-18T23:49:36.294Z,5.43
2018-06-18T23:52:04.927Z,4.97
2018-06-18T23:54:33.405Z,5.40
2018-06-18T23:57:02.304Z,5.63
2018-06-18T23:59:30.661Z,5.40
